ADDS METAR Data INFO
IDs: Format: Raw Decoded Include TAF

Data at: 0902 UTC 20 Oct 2017

KFKN 200855Z AUTO 00000KT 10SM CLR 07/06 A3019 RMK AO2 T00660060
KFKN 200835Z AUTO 00000KT 10SM CLR 07/06 A3019 RMK AO2 T00670062
KFKN 200815Z AUTO 00000KT 10SM CLR 07/06 A3019 RMK AO2 T00670061
KFKN 200755Z AUTO 00000KT 10SM CLR 06/06 A3019 RMK AO2 T00630057
KFKN 200735Z AUTO 00000KT 10SM CLR 08/07 A3019 RMK AO2 T00750070
KFKN 200715Z AUTO 00000KT 10SM CLR 07/07 A3019 RMK AO2 T00720066
KFKN 200655Z AUTO 00000KT 10SM CLR 07/07 A3019 RMK AO2 T00710067
KFKN 200635Z AUTO 00000KT 10SM CLR 07/06 A3019 RMK AO2 T00700062
KFKN 200615Z AUTO 00000KT 10SM CLR 07/07 A3019 RMK AO2 T00730067
KFKN 200555Z AUTO 00000KT 10SM CLR 08/08 A3020 RMK AO2 T00800076 10141 20079
KFKN 200535Z AUTO 00000KT 10SM CLR 08/08 A3021 RMK AO2 T00820078
KFKN 200515Z AUTO 00000KT 10SM CLR 09/08 A3020 RMK AO2 T00850080
KFKN 200455Z AUTO 00000KT 10SM CLR 09/08 A3020 RMK AO2 T00850077 402380045
KFKN 200435Z AUTO 00000KT 7SM CLR 09/08 A3020 RMK AO2 T00860081
KFKN 200415Z AUTO 00000KT 10SM CLR 09/08 A3020 RMK AO2 T00900081
KFKN 200355Z AUTO 00000KT 1 3/4SM BR SCT002 09/08 A3020 RMK AO2 VIS 1/2V5 T00900082
KFKN 200335Z AUTO 00000KT 10SM CLR 09/08 A3020 RMK AO2 T00890081
KFKN 200315Z AUTO 00000KT 10SM CLR 09/09 A3020 RMK AO2 T00920085
KFKN 200255Z AUTO 00000KT 10SM CLR 10/09 A3020 RMK AO2 T01000090
KFKN 200235Z AUTO 00000KT 10SM CLR 10/09 A3020 RMK AO2 T01000093
KFKN 200215Z AUTO 00000KT 10SM CLR 10/10 A3020 RMK AO2 T01000095
KFKN 200155Z AUTO 00000KT 10SM CLR 11/11 A3020 RMK AO2 T01110106
KFKN 200135Z AUTO 00000KT 10SM CLR 12/11 A3020 RMK AO2 T01160111
KFKN 200115Z AUTO 00000KT 10SM CLR 12/11 A3020 RMK AO2 T01180112
KFKN 200055Z AUTO 00000KT 10SM CLR 12/11 A3020 RMK AO2 T01220114
KFKN 200035Z AUTO 00000KT 10SM CLR 13/12 A3020 RMK AO2 T01300116
KFKN 200015Z AUTO 00000KT 10SM CLR 14/12 A3020 RMK AO2 T01400123
KFKN 192355Z AUTO 00000KT 10SM CLR 14/12 A3020 RMK AO2 T01400123 10238 20140
KFKN 192335Z AUTO 00000KT 10SM CLR 14/12 A3020 RMK AO2 T01420124
KFKN 192315Z AUTO 00000KT 10SM CLR 15/13 A3019 RMK AO2 T01520127
KFKN 192255Z AUTO 00000KT 10SM CLR 16/13 A3019 RMK AO2 T01600128
KFKN 192235Z AUTO 00000KT 10SM CLR 17/13 A3019 RMK AO2 T01730129
KFKN 192215Z AUTO 00000KT 10SM CLR 19/13 A3019 RMK AO2 T01940129
KFKN 192155Z AUTO 00000KT 10SM CLR 22/11 A3019 RMK AO2 T02170114
KFKN 192135Z AUTO 00000KT 10SM CLR 23/11 A3019 RMK AO2 T02250111
KFKN 192115Z AUTO 00000KT 10SM CLR 23/10 A3019 RMK AO2 T02300104
KFKN 192055Z AUTO 23003KT 10SM CLR 23/10 A3019 RMK AO2 T02340104
KFKN 192035Z AUTO 26004KT 10SM CLR 24/10 A3019 RMK AO2 T02360104
KFKN 192015Z AUTO 27006KT 10SM CLR 24/11 A3019 RMK AO2 T02350107
KFKN 191955Z AUTO 26005KT 10SM CLR 24/11 A3020 RMK AO2 T02360108
KFKN 191935Z AUTO 27006KT 10SM CLR 24/11 A3020 RMK AO2 T02350112
KFKN 191915Z AUTO 20005KT 10SM CLR 24/11 A3021 RMK AO2 T02350114
KFKN 191855Z AUTO 25005KT 10SM CLR 23/11 A3021 RMK AO2 T02330114
KFKN 191835Z AUTO 23005KT 10SM CLR 23/12 A3022 RMK AO2 T02330117
KFKN 191815Z AUTO 25007KT 10SM CLR 23/12 A3023 RMK AO2 T02270122
KFKN 191755Z AUTO 25007KT 10SM CLR 23/12 A3024 RMK AO2 T02270122 10227 20058
KFKN 191735Z AUTO 00000KT 10SM CLR 22/12 A3025 RMK AO2 T02190122
KFKN 191715Z AUTO 24005KT 10SM CLR 22/12 A3026 RMK AO2 T02200123
KFKN 191655Z AUTO 00000KT 10SM CLR 21/12 A3027 RMK AO2 T02120119
KFKN 191635Z AUTO 25006KT 10SM CLR 21/12 A3028 RMK AO2 T02120121
KFKN 191615Z AUTO 27004KT 10SM CLR 21/12 A3029 RMK AO2 T02090115
KFKN 191555Z AUTO 18003KT 10SM CLR 20/11 A3030 RMK AO2 T02040112
KFKN 191535Z AUTO 21003KT 10SM CLR 20/11 A3031 RMK AO2 T01990108
KFKN 191515Z AUTO 28003KT 10SM CLR 19/11 A3031 RMK AO2 T01940107
KFKN 191415Z AUTO 00000KT 10SM CLR 17/11 A3032 RMK AO2 T01680111
KFKN 191355Z AUTO 00000KT 10SM CLR 15/11 A3031 RMK AO2 T01500114
KFKN 191335Z AUTO 00000KT 10SM CLR 14/12 A3031 RMK AO2 T01380118
KFKN 191315Z AUTO 00000KT 10SM CLR 12/10 A3031 RMK AO2 T01160104
KFKN 191255Z AUTO 00000KT 10SM CLR 10/09 A3031 RMK AO2 T01000087
KFKN 191235Z AUTO 00000KT 10SM CLR 08/07 A3031 RMK AO2 T00810072
KFKN 191215Z AUTO 00000KT 10SM CLR 07/06 A3030 RMK AO2 T00700060
KFKN 191155Z AUTO 00000KT 10SM CLR 06/05 A3030 RMK AO2 T00560049 10060 20045
KFKN 191135Z AUTO 00000KT 10SM CLR 05/05 A3030 RMK AO2 T00510046
KFKN 191115Z AUTO 00000KT 10SM CLR 05/04 A3030 RMK AO2 T00450039
KFKN 191055Z AUTO 00000KT 10SM CLR 05/04 A3030 RMK AO2 T00490042
KFKN 191035Z AUTO 00000KT 10SM CLR 05/04 A3031 RMK AO2 T00460040
KFKN 191015Z AUTO 00000KT 10SM CLR 05/04 A3031 RMK AO2 T00460041
KFKN 190955Z AUTO 00000KT 10SM CLR 05/04 A3030 RMK AO2 T00470041
KFKN 190935Z AUTO 00000KT 10SM CLR 05/04 A3030 RMK AO2 T00480041
KFKN 190915Z AUTO 00000KT 10SM CLR 05/04 A3030 RMK AO2 T00490041
KFKN 190855Z AUTO 00000KT 10SM CLR 05/05 A3030 RMK AO2 T00530047
KFKN 190835Z AUTO 00000KT 10SM CLR 05/04 A3030 RMK AO2 T00510043
KFKN 190815Z AUTO 00000KT 10SM CLR 06/05 A3030 RMK AO2 T00550047
KFKN 190755Z AUTO 00000KT 10SM CLR 06/05 A3030 RMK AO2 T00560050
KFKN 190735Z AUTO 00000KT 10SM CLR 06/06 A3031 RMK AO2 T00600055
KFKN 190715Z AUTO 00000KT 10SM CLR 06/05 A3031 RMK AO2 T00570050
KFKN 190655Z AUTO 00000KT 10SM CLR 06/05 A3031 RMK AO2 T00570050
KFKN 190635Z AUTO 00000KT 10SM CLR 06/05 A3032 RMK AO2 T00570051
KFKN 190615Z AUTO 00000KT 10SM CLR 06/05 A3032 RMK AO2 T00580053
KFKN 190555Z AUTO 00000KT 10SM CLR 05/05 A3032 RMK AO2 T00540046 10116 20054
KFKN 190535Z AUTO 00000KT 10SM CLR 06/06 A3032 RMK AO2 T00620055
KFKN 190515Z AUTO 00000KT 10SM CLR 06/06 A3032 RMK AO2 T00620056
KFKN 190455Z AUTO 00000KT 10SM CLR 07/06 A3033 RMK AO2 T00650060 402070013
KFKN 190435Z AUTO 00000KT 10SM CLR 06/06 A3033 RMK AO2 T00610055
KFKN 190415Z AUTO 00000KT 10SM CLR 07/06 A3033 RMK AO2 T00690062
KFKN 190355Z AUTO 00000KT 10SM CLR 07/06 A3033 RMK AO2 T00650058
KFKN 190335Z AUTO 00000KT 10SM CLR 07/07 A3033 RMK AO2 T00730065
KFKN 190315Z AUTO 00000KT 10SM CLR 07/07 A3034 RMK AO2 T00720065
KFKN 190255Z AUTO 00000KT 10SM CLR 07/07 A3034 RMK AO2 T00740066
KFKN 190235Z AUTO 00000KT 10SM CLR 08/07 A3034 RMK AO2 T00800073
KFKN 190215Z AUTO 00000KT 10SM CLR 08/07 A3034 RMK AO2 T00810072
KFKN 190155Z AUTO 00000KT 10SM CLR 09/08 A3034 RMK AO2 T00880077
KFKN 190135Z AUTO 00000KT 10SM CLR 09/08 A3034 RMK AO2 T00900080
KFKN 190115Z AUTO 00000KT 10SM CLR 10/08 A3034 RMK AO2 T00950082
KFKN 190055Z AUTO 00000KT 10SM CLR 10/09 A3034 RMK AO2 T00970086
KFKN 190035Z AUTO 00000KT 10SM CLR 10/09 A3034 RMK AO2 T01030086
KFKN 190015Z AUTO 00000KT 10SM CLR 10/09 A3034 RMK AO2 T01040088
KFKN 182355Z AUTO 00000KT 10SM CLR 12/10 A3034 RMK AO2 T01190096 10207 20119
KFKN 182335Z AUTO 00000KT 10SM CLR 12/09 A3033 RMK AO2 T01200093
KFKN 182315Z AUTO 00000KT 10SM CLR 13/10 A3032 RMK AO2 T01310095
KFKN 182255Z AUTO 06003KT 10SM CLR 14/10 A3032 RMK AO2 T01430099
KFKN 182235Z AUTO 08004KT 10SM CLR 15/09 A3032 RMK AO2 T01470094
KFKN 182215Z AUTO 00000KT 10SM CLR 18/08 A3032 RMK AO2 T01790079
KFKN 182155Z AUTO 12003KT 10SM CLR 19/08 A3032 RMK AO2 T01910075
KFKN 182135Z AUTO 00000KT 10SM CLR 20/07 A3032 RMK AO2 T01970072
KFKN 182115Z AUTO 00000KT 10SM CLR 20/08 A3032 RMK AO2 T02000076